Maersk_kyrenia — VRGM8 — position and weather

sailwx.info

Track history (hours):
 
Tides and Currents Weather Stations Pressure Air Temp Water Temp Dewpoint Dewpoint Depression Visibility Wind Speed Wind Dir Waves Ship Positions

Maersk_kyrenia

Last reported at 2014-Dec-20 23:32 UTC. Time now 2014-Dec-21 00:26 UTC.
Position N 51°58' E 001°18'.

Length 300 m; draft 13.1 m.

MMSI: 477733600.

Date/timePositionNaut miles runAvg speedWind from/ knotsBaromVisibWave heightAir tempDewpointWater temp
2014-Dec-20 23:32N 51°58' E 001°18'0 0.0
2014-Dec-20 22:32N 51°58' E 001°18'0 0.0
2014-Dec-20 21:32N 51°58' E 001°18'0 0.0
2014-Dec-20 20:32N 51°58' E 001°18'0 0.0
2014-Dec-20 19:32N 51°58' E 001°18'0 0.0
2014-Dec-20 18:32N 51°58' E 001°18'0 0.0
2014-Dec-20 17:32N 51°58' E 001°18'0 0.0
2014-Dec-20 16:32N 51°58' E 001°18'0 0.0
2014-Dec-20 15:32N 51°58' E 001°18'0 0.0
2014-Dec-20 14:32N 51°58' E 001°18'0 0.0
2014-Dec-20 13:32N 51°58' E 001°18'0 0.0
2014-Dec-20 12:32N 51°58' E 001°18'0 0.0
2014-Dec-20 11:32N 51°58' E 001°18'0 0.0
2014-Dec-20 10:32N 51°58' E 001°18'0 0.0
2014-Dec-20 09:32N 51°58' E 001°18'0 0.0
2014-Dec-20 08:32N 51°58' E 001°18'0 0.0
2014-Dec-20 07:32N 51°58' E 001°18'0 0.0
2014-Dec-20 06:34N 51°58' E 001°18'4 3.6
2014-Dec-20 05:34N 51°56' E 001°23'1110.8
2014-Dec-20 04:33N 51°52' E 001°39'7 6.5
2014-Dec-20 03:33N 51°48' E 001°48'1313.5
2014-Dec-20 02:34N 51°35' E 001°52'1413.7
2014-Dec-20 01:33N 51°24' E 002°06'1211.8
2014-Dec-20 00:33N 51°13' E 001°59'1616.0
2014-Dec-19 23:33N 51°04' E 001°38'1323.1
2014-Dec-19 23:00N 50°54' E 001°24'510.6 280 / 231024.7 5.4 1.5 9.5 5.112.0
2014-Dec-19 22:33N 50°49' E 001°24'4715.3
2014-Dec-19 19:27N 50°24' E 000°22'20116.2
2014-Dec-19 07:00N 49°12' W 004°30'24416.3 260 / 291017.7 5.4 2.514.911.413.6
2014-Dec-18 16:00N 45°48' W 007°48'16116.1 240 / 251027.2 5.4 13.5 9.614.2
2014-Dec-18 06:00N 43°24' W 009°30'20415.7 280 / 81030.9 5.4 13.110.014.7
2014-Dec-17 17:00N 40°00' W 009°48'5315.4 040 / 161030.4 5.4 2.514.3 7.916.6
2014-Dec-17 13:32N 39°07' W 009°49'1815.2
2014-Dec-17 12:19N 38°48' W 009°50'1215.1
2014-Dec-17 11:33N 38°37' W 009°49'1515.2
2014-Dec-17 10:33N 38°22' W 009°45'1615.2
2014-Dec-17 09:31N 38°06' W 009°41'1515.2
2014-Dec-17 08:33N 37°52' W 009°36'1515.2
2014-Dec-17 07:33N 37°37' W 009°32'8415.1
2014-Dec-17 02:00N 36°30' W 008°30'14416.1 010 / 191025.1 5.4 1.015.0 9.218.0
2014-Dec-16 17:03N 35°58' W 005°35'714.2
2014-Dec-16 16:33N 36°01' W 005°27'8 8.1
2014-Dec-16 15:33N 36°09' W 005°26'0 0.1
2014-Dec-16 14:29N 36°09' W 005°26'0 0.0
2014-Dec-16 13:33N 36°09' W 005°26'0 0.0
2014-Dec-16 12:33N 36°09' W 005°26'0 0.0
2014-Dec-16 11:32N 36°09' W 005°26'0 0.0
2014-Dec-16 10:33N 36°09' W 005°26'0 0.0
2014-Dec-16 09:32N 36°09' W 005°26'0 0.0
2014-Dec-16 08:33N 36°09' W 005°26'0 0.0
2014-Dec-16 07:32N 36°09' W 005°26'0 0.0
2014-Dec-16 06:33N 36°09' W 005°26'0 0.0
2014-Dec-16 05:33N 36°09' W 005°26'0 0.0
2014-Dec-16 04:33N 36°09' W 005°26'0 0.0
2014-Dec-16 03:31N 36°09' W 005°26'0 0.0
2014-Dec-16 02:33N 36°09' W 005°26'0 0.0
2014-Dec-16 01:14N 36°09' W 005°26'0 0.0
2014-Dec-16 00:32N 36°09' W 005°26'0 0.0
2014-Dec-15 23:33N 36°09' W 005°26'0 0.0
2014-Dec-15 22:33N 36°09' W 005°26'0 0.0
2014-Dec-15 21:33N 36°09' W 005°26'0 0.0
2014-Dec-15 20:33N 36°09' W 005°26'0 0.0
2014-Dec-15 19:31N 36°09' W 005°26'4 3.8
2014-Dec-15 18:33N 36°06' W 005°23'4 4.1
2014-Dec-15 17:33N 36°06' W 005°18'3 3.2
2014-Dec-15 16:33N 36°05' W 005°14'  
2014-Dec-12 13:00N 35°12' E 019°06'4815.9 340 / 251016.9 5.4 2.017.010.519.0
2014-Dec-12 10:00N 34°54' E 020°00'17014.2 010 / 231013.610.8 18.112.620.2
2014-Dec-11 22:00N 34°06' E 023°18'16914.1 230 / 231008.110.8 1.016.0 8.120.7
2014-Dec-11 10:00N 33°12' E 026°30'   130 / 271015.610.8 1.023.114.520.6
Track history (hours):
 
Tides and Currents Weather Stations Pressure Air Temp Water Temp Dewpoint Dewpoint Depression Visibility Wind Speed Wind Dir Waves Ship Positions

Maersk_kyrenia

Last reported at 2014-Dec-20 23:32 UTC. Time now 2014-Dec-21 00:26 UTC.
Position N 51°58' E 001°18'.

Length 300 m; draft 13.1 m.

MMSI: 477733600.

Date/timePositionNaut miles runAvg speedWind from/ knotsBaromVisibWave heightAir tempDewpointWater temp
2014-Dec-20 23:32N 51°58' E 001°18'0 0.0
2014-Dec-20 22:32N 51°58' E 001°18'0 0.0
2014-Dec-20 21:32N 51°58' E 001°18'0 0.0
2014-Dec-20 20:32N 51°58' E 001°18'0 0.0
2014-Dec-20 19:32N 51°58' E 001°18'0 0.0
2014-Dec-20 18:32N 51°58' E 001°18'0 0.0
2014-Dec-20 17:32N 51°58' E 001°18'0 0.0
2014-Dec-20 16:32N 51°58' E 001°18'0 0.0
2014-Dec-20 15:32N 51°58' E 001°18'0 0.0
2014-Dec-20 14:32N 51°58' E 001°18'0 0.0
2014-Dec-20 13:32N 51°58' E 001°18'0 0.0
2014-Dec-20 12:32N 51°58' E 001°18'0 0.0
2014-Dec-20 11:32N 51°58' E 001°18'0 0.0
2014-Dec-20 10:32N 51°58' E 001°18'0 0.0
2014-Dec-20 09:32N 51°58' E 001°18'0 0.0
2014-Dec-20 08:32N 51°58' E 001°18'0 0.0
2014-Dec-20 07:32N 51°58' E 001°18'0 0.0
2014-Dec-20 06:34N 51°58' E 001°18'4 3.6
2014-Dec-20 05:34N 51°56' E 001°23'1110.8
2014-Dec-20 04:33N 51°52' E 001°39'7 6.5
2014-Dec-20 03:33N 51°48' E 001°48'1313.5
2014-Dec-20 02:34N 51°35' E 001°52'1413.7
2014-Dec-20 01:33N 51°24' E 002°06'1211.8
2014-Dec-20 00:33N 51°13' E 001°59'1616.0
2014-Dec-19 23:33N 51°04' E 001°38'1323.1
2014-Dec-19 23:00N 50°54' E 001°24'510.6 280 / 231024.7 5.4 1.5 9.5 5.112.0
2014-Dec-19 22:33N 50°49' E 001°24'4715.3
2014-Dec-19 19:27N 50°24' E 000°22'20116.2
2014-Dec-19 07:00N 49°12' W 004°30'24416.3 260 / 291017.7 5.4 2.514.911.413.6
2014-Dec-18 16:00N 45°48' W 007°48'16116.1 240 / 251027.2 5.4 13.5 9.614.2
2014-Dec-18 06:00N 43°24' W 009°30'20415.7 280 / 81030.9 5.4 13.110.014.7
2014-Dec-17 17:00N 40°00' W 009°48'5315.4 040 / 161030.4 5.4 2.514.3 7.916.6
2014-Dec-17 13:32N 39°07' W 009°49'1815.2
2014-Dec-17 12:19N 38°48' W 009°50'1215.1
2014-Dec-17 11:33N 38°37' W 009°49'1515.2
2014-Dec-17 10:33N 38°22' W 009°45'1615.2
2014-Dec-17 09:31N 38°06' W 009°41'1515.2
2014-Dec-17 08:33N 37°52' W 009°36'1515.2
2014-Dec-17 07:33N 37°37' W 009°32'8415.1
2014-Dec-17 02:00N 36°30' W 008°30'14416.1 010 / 191025.1 5.4 1.015.0 9.218.0
2014-Dec-16 17:03N 35°58' W 005°35'714.2
2014-Dec-16 16:33N 36°01' W 005°27'8 8.1
2014-Dec-16 15:33N 36°09' W 005°26'0 0.1
2014-Dec-16 14:29N 36°09' W 005°26'0 0.0
2014-Dec-16 13:33N 36°09' W 005°26'0 0.0
2014-Dec-16 12:33N 36°09' W 005°26'0 0.0
2014-Dec-16 11:32N 36°09' W 005°26'0 0.0
2014-Dec-16 10:33N 36°09' W 005°26'0 0.0
2014-Dec-16 09:32N 36°09' W 005°26'0 0.0
2014-Dec-16 08:33N 36°09' W 005°26'0 0.0
2014-Dec-16 07:32N 36°09' W 005°26'0 0.0
2014-Dec-16 06:33N 36°09' W 005°26'0 0.0
2014-Dec-16 05:33N 36°09' W 005°26'0 0.0
2014-Dec-16 04:33N 36°09' W 005°26'0 0.0
2014-Dec-16 03:31N 36°09' W 005°26'0 0.0
2014-Dec-16 02:33N 36°09' W 005°26'0 0.0
2014-Dec-16 01:14N 36°09' W 005°26'0 0.0
2014-Dec-16 00:32N 36°09' W 005°26'0 0.0
2014-Dec-15 23:33N 36°09' W 005°26'0 0.0
2014-Dec-15 22:33N 36°09' W 005°26'0 0.0
2014-Dec-15 21:33N 36°09' W 005°26'0 0.0
2014-Dec-15 20:33N 36°09' W 005°26'0 0.0
2014-Dec-15 19:31N 36°09' W 005°26'4 3.8
2014-Dec-15 18:33N 36°06' W 005°23'4 4.1
2014-Dec-15 17:33N 36°06' W 005°18'3 3.2
2014-Dec-15 16:33N 36°05' W 005°14'  
2014-Dec-12 13:00N 35°12' E 019°06'4815.9 340 / 251016.9 5.4 2.017.010.519.0
2014-Dec-12 10:00N 34°54' E 020°00'17014.2 010 / 231013.610.8 18.112.620.2
2014-Dec-11 22:00N 34°06' E 023°18'16914.1 230 / 231008.110.8 1.016.0 8.120.7
2014-Dec-11 10:00N 33°12' E 026°30'   130 / 271015.610.8 1.023.114.520.6

Dump ship's entire track history